Time;durP1;ratioP1;P1;durP2;ratioP2;P2;SDS_P1;SDS_P2;PMS_P1;PMS_P2;Temp;Humidity;BMP_temperature;BMP_pressure;BME280_temperature;BME280_humidity;BME280_pressure;Samples;Min_cycle;Max_cycle;Signal;HPM_P1;HPM_P2
2023/12/02 00:00:06;;;;;;;;;;;-0.60;99.90;;;;;;5005636;28;19925;-72
2023/12/02 00:02:32;;;;;;;;;;;-0.60;99.90;;;;;;5004603;28;19987;-72
2023/12/02 00:04:57;;;;;;;;;;;-0.60;99.90;;;;;;5001235;28;19934;-72
2023/12/02 00:07:23;;;;;;;;;;;-0.60;99.90;;;;;;5003113;28;19972;-72
2023/12/02 00:09:48;;;;;;;;;;;-0.60;99.90;;;;;;5001629;28;19925;-71
2023/12/02 00:12:14;;;;;;;;;;;-0.60;99.90;;;;;;5004600;28;19998;-72
2023/12/02 00:14:40;;;;;;;;;;;-0.60;99.90;;;;;;5017989;28;20376;-73
2023/12/02 00:17:05;;;;;;;;;;;-0.60;99.90;;;;;;5006792;28;19929;-73
2023/12/02 00:19:31;;;;;;;;;;;-0.60;99.90;;;;;;5007037;28;19929;-73
2023/12/02 00:21:56;;;;;;;;;;;-0.50;99.90;;;;;;5025479;28;19940;-73
2023/12/02 00:24:22;;;;;;;;;;;-0.60;99.90;;;;;;5011136;28;19933;-73
2023/12/02 00:26:47;;;;;;;;;;;-0.60;99.90;;;;;;5009463;28;19925;-73
2023/12/02 00:29:13;;;;;;;;;;;-0.50;99.90;;;;;;5012542;28;19940;-73
2023/12/02 00:31:38;;;;;;;;;;;-0.50;99.90;;;;;;5009641;28;20004;-73
2023/12/02 00:34:04;;;;;;;;;;;-0.50;99.90;;;;;;5011995;28;19972;-73
2023/12/02 00:36:31;;;;;;;;;;;-0.60;99.90;;;;;;5014375;28;19960;-71
2023/12/02 00:38:56;;;;;;;;;;;-0.50;99.90;;;;;;4989350;28;19940;-70
2023/12/02 00:41:22;;;;;;;;;;;-0.40;99.90;;;;;;5004893;28;20259;-72
2023/12/02 00:43:47;;;;;;;;;;;-0.40;99.90;;;;;;5007153;28;20309;-71
2023/12/02 00:46:13;;;;;;;;;;;-0.50;99.90;;;;;;5011654;28;20376;-71
2023/12/02 00:48:38;;;;;;;;;;;-0.50;99.90;;;;;;5019368;28;19925;-71
2023/12/02 00:51:04;;;;;;;;;;;-0.50;99.90;;;;;;5029087;28;19925;-72
2023/12/02 00:53:30;;;;;;;;;;;-0.50;99.90;;;;;;5028393;28;19926;-71
2023/12/02 00:55:55;;;;;;;;;;;-0.40;99.90;;;;;;5022699;28;19949;-71
2023/12/02 00:58:21;;;;;;;;;;;-0.40;99.90;;;;;;5020477;28;19934;-72
2023/12/02 01:00:46;;;;;;;;;;;-0.30;99.90;;;;;;5014999;28;19952;-72
2023/12/02 01:03:12;;;;;;;;;;;-0.40;99.90;;;;;;5005028;28;20539;-72
2023/12/02 01:05:37;;;;;;;;;;;-0.30;99.90;;;;;;5003098;28;19936;-72
2023/12/02 01:08:03;;;;;;;;;;;-0.30;99.90;;;;;;5010734;28;19933;-72
2023/12/02 01:10:28;;;;;;;;;;;-0.40;99.90;;;;;;5005628;28;19934;-72
2023/12/02 01:12:54;;;;;;;;;;;-0.30;99.90;;;;;;5002614;28;19965;-72
2023/12/02 01:15:19;;;;;;;;;;;-0.20;99.90;;;;;;5007801;28;20214;-72
2023/12/02 01:17:45;;;;;;;;;;;-0.30;99.90;;;;;;5021451;28;20020;-72
2023/12/02 01:20:10;;;;;;;;;;;-0.30;99.90;;;;;;5005624;28;19955;-72
2023/12/02 01:22:36;;;;;;;;;;;-0.30;99.90;;;;;;5002806;28;19930;-72
2023/12/02 01:25:02;;;;;;;;;;;-0.30;99.90;;;;;;5006397;28;20447;-72
2023/12/02 01:27:27;;;;;;;;;;;-0.30;99.90;;;;;;5010856;28;19936;-72
2023/12/02 01:29:53;;;;;;;;;;;-0.30;99.90;;;;;;5006430;28;19926;-72
2023/12/02 01:32:18;;;;;;;;;;;-0.20;99.90;;;;;;5004669;28;20397;-72
2023/12/02 01:34:45;;;;;;;;;;;-0.20;99.90;;;;;;5007748;28;19964;-71
2023/12/02 01:37:11;;;;;;;;;;;-0.20;99.90;;;;;;5008835;28;19960;-72
2023/12/02 01:39:36;;;;;;;;;;;-0.30;99.90;;;;;;5005124;28;20316;-72
2023/12/02 01:42:02;;;;;;;;;;;-0.30;99.90;;;;;;5003657;28;19936;-71
2023/12/02 01:44:28;;;;;;;;;;;-0.20;99.90;;;;;;5001494;28;20308;-73
2023/12/02 01:46:54;;;;;;;;;;;-0.30;99.90;;;;;;5019511;28;20048;-72
2023/12/02 01:49:20;;;;;;;;;;;-0.20;99.90;;;;;;4998744;28;19996;-72
2023/12/02 01:51:45;;;;;;;;;;;-0.30;99.90;;;;;;5003155;28;19925;-72
2023/12/02 01:54:11;;;;;;;;;;;-0.20;99.90;;;;;;5002486;28;20286;-72
2023/12/02 01:56:37;;;;;;;;;;;-0.30;99.90;;;;;;5018225;28;20313;-72
2023/12/02 01:59:02;;;;;;;;;;;-0.30;99.90;;;;;;5007095;28;19933;-72
2023/12/02 02:01:29;;;;;;;;;;;-0.30;99.90;;;;;;5001978;28;20353;-72
2023/12/02 02:03:55;;;;;;;;;;;-0.40;99.90;;;;;;5001890;28;19988;-72
2023/12/02 02:06:22;;;;;;;;;;;-0.40;99.90;;;;;;5005918;28;20052;-72
2023/12/02 02:08:47;;;;;;;;;;;-0.40;99.90;;;;;;5005258;28;20016;-72
2023/12/02 02:11:13;;;;;;;;;;;-0.40;99.90;;;;;;5005807;28;20456;-72
2023/12/02 02:13:38;;;;;;;;;;;-0.40;99.90;;;;;;5004409;28;19932;-72
2023/12/02 02:16:04;;;;;;;;;;;-0.40;99.90;;;;;;5002721;28;20020;-72
2023/12/02 02:18:30;;;;;;;;;;;-0.40;99.90;;;;;;4987337;28;20187;-72
2023/12/02 02:20:55;;;;;;;;;;;-0.40;99.90;;;;;;5002072;28;20018;-72
2023/12/02 02:23:22;;;;;;;;;;;-0.40;99.90;;;;;;5009514;28;20384;-72
2023/12/02 02:25:48;;;;;;;;;;;-0.40;99.90;;;;;;5004444;28;20377;-72
2023/12/02 02:28:18;;;;;;;;;;;-0.30;99.90;;;;;;5002801;28;19929;-72
2023/12/02 02:30:44;;;;;;;;;;;-0.40;99.90;;;;;;5006270;28;20018;-72
2023/12/02 02:33:09;;;;;;;;;;;-0.30;99.90;;;;;;5003860;28;20048;-72
2023/12/02 02:35:35;;;;;;;;;;;-0.30;99.90;;;;;;5003291;28;19926;-72
2023/12/02 02:38:00;;;;;;;;;;;-0.30;99.90;;;;;;5002025;28;19930;-72
2023/12/02 02:40:26;;;;;;;;;;;-0.30;99.90;;;;;;5005767;28;20299;-72
2023/12/02 02:42:52;;;;;;;;;;;-0.30;99.90;;;;;;4999117;28;19969;-72
2023/12/02 02:45:17;;;;;;;;;;;-0.30;99.90;;;;;;5003198;28;20345;-72
2023/12/02 02:47:43;;;;;;;;;;;-0.30;99.90;;;;;;5004420;28;20028;-72
2023/12/02 02:50:08;;;;;;;;;;;-0.20;99.90;;;;;;5005229;28;19933;-72
2023/12/02 02:52:34;;;;;;;;;;;-0.30;99.90;;;;;;5003209;28;19926;-73
2023/12/02 02:54:59;;;;;;;;;;;-0.30;99.90;;;;;;5001892;28;19986;-73
2023/12/02 02:57:25;;;;;;;;;;;-0.30;99.90;;;;;;5002953;28;19985;-73
2023/12/02 02:59:51;;;;;;;;;;;-0.30;99.90;;;;;;5003749;28;19925;-73
2023/12/02 03:02:16;;;;;;;;;;;-0.30;99.90;;;;;;5000950;28;20001;-74
2023/12/02 03:04:42;;;;;;;;;;;-0.30;99.90;;;;;;5004941;28;19926;-73
2023/12/02 03:07:08;;;;;;;;;;;-0.20;99.90;;;;;;5003069;28;19930;-73
2023/12/02 03:09:33;;;;;;;;;;;-0.30;99.90;;;;;;5020149;28;19930;-73
2023/12/02 03:11:59;;;;;;;;;;;-0.30;99.90;;;;;;4985104;28;19929;-73
2023/12/02 03:14:24;;;;;;;;;;;-0.30;99.90;;;;;;4982444;28;19937;-73
2023/12/02 03:16:50;;;;;;;;;;;-0.20;99.90;;;;;;4986041;28;19926;-73
2023/12/02 03:19:15;;;;;;;;;;;-0.30;99.90;;;;;;4995805;28;20022;-73
2023/12/02 03:21:41;;;;;;;;;;;-0.30;99.90;;;;;;4997680;28;19956;-73
2023/12/02 03:24:07;;;;;;;;;;;-0.30;99.90;;;;;;5002359;28;19933;-73
2023/12/02 03:26:36;;;;;;;;;;;-0.30;99.90;;;;;;5005583;28;19934;-73
2023/12/02 03:29:03;;;;;;;;;;;-0.30;99.90;;;;;;5005374;28;20405;-78
2023/12/02 03:31:28;;;;;;;;;;;-0.30;99.90;;;;;;5000291;28;19936;-74
2023/12/02 03:33:54;;;;;;;;;;;-0.20;99.90;;;;;;5002491;28;19933;-73
2023/12/02 03:36:20;;;;;;;;;;;-0.20;99.90;;;;;;4999063;28;20080;-73
2023/12/02 03:38:45;;;;;;;;;;;-0.30;99.90;;;;;;5005524;28;19983;-71
2023/12/02 03:41:11;;;;;;;;;;;-0.20;99.90;;;;;;5002400;28;20316;-71
2023/12/02 03:43:36;;;;;;;;;;;-0.20;99.90;;;;;;5001391;28;20617;-72
2023/12/02 03:46:02;;;;;;;;;;;-0.30;99.90;;;;;;5002382;28;20391;-72
2023/12/02 03:48:27;;;;;;;;;;;-0.20;99.90;;;;;;5005228;28;19995;-72
2023/12/02 03:50:53;;;;;;;;;;;-0.30;99.90;;;;;;5002802;28;20442;-72
2023/12/02 03:53:19;;;;;;;;;;;-0.30;99.90;;;;;;5007066;28;19952;-72
2023/12/02 03:55:45;;;;;;;;;;;-0.40;99.90;;;;;;5005365;28;19967;-72
2023/12/02 03:58:11;;;;;;;;;;;-0.40;99.90;;;;;;5008299;28;20389;-72
2023/12/02 04:00:36;;;;;;;;;;;-0.40;99.90;;;;;;4993737;28;19925;-72
2023/12/02 04:03:02;;;;;;;;;;;-0.40;99.90;;;;;;5004736;28;20645;-72
2023/12/02 04:05:28;;;;;;;;;;;-0.40;99.90;;;;;;5004848;28;19990;-72
2023/12/02 04:07:53;;;;;;;;;;;-0.40;99.90;;;;;;4992115;28;19925;-72
2023/12/02 04:10:19;;;;;;;;;;;-0.50;99.90;;;;;;4990371;28;20388;-72
2023/12/02 04:12:44;;;;;;;;;;;-0.40;99.90;;;;;;4991597;28;19933;-72
2023/12/02 04:15:10;;;;;;;;;;;-0.50;99.90;;;;;;4988570;28;20024;-72
2023/12/02 04:17:36;;;;;;;;;;;-0.50;99.90;;;;;;4988901;28;19968;-71
2023/12/02 04:20:08;;;;;;;;;;;-0.50;99.90;;;;;;5008584;28;19964;-72
2023/12/02 04:22:34;;;;;;;;;;;-0.50;99.90;;;;;;4988643;28;19949;-72
2023/12/02 04:25:00;;;;;;;;;;;-0.50;99.90;;;;;;4990806;28;19959;-72
2023/12/02 04:27:25;;;;;;;;;;;-0.50;99.90;;;;;;5006191;28;19930;-72
2023/12/02 04:29:51;;;;;;;;;;;-0.50;99.90;;;;;;5007987;28;19940;-71
2023/12/02 04:32:17;;;;;;;;;;;-0.50;99.90;;;;;;4984610;28;19936;-72
2023/12/02 04:34:42;;;;;;;;;;;-0.50;99.90;;;;;;4986744;28;19925;-72
2023/12/02 04:37:08;;;;;;;;;;;-0.50;99.90;;;;;;4990984;28;20495;-72
2023/12/02 04:39:33;;;;;;;;;;;-0.50;99.90;;;;;;4991172;28;19978;-72
2023/12/02 04:41:59;;;;;;;;;;;-0.50;99.90;;;;;;4989874;28;19960;-72
2023/12/02 04:44:25;;;;;;;;;;;-0.50;99.90;;;;;;4989530;28;19971;-72
2023/12/02 04:46:51;;;;;;;;;;;-0.50;99.90;;;;;;4990569;28;19926;-72
2023/12/02 04:49:16;;;;;;;;;;;-0.50;99.90;;;;;;4988645;28;19972;-72
2023/12/02 04:51:42;;;;;;;;;;;-0.50;99.90;;;;;;4990461;28;20651;-72
2023/12/02 04:54:07;;;;;;;;;;;-0.40;99.90;;;;;;4990542;28;19987;-72
2023/12/02 04:56:33;;;;;;;;;;;-0.50;99.90;;;;;;5003796;28;19925;-72
2023/12/02 04:58:58;;;;;;;;;;;-0.50;99.90;;;;;;5012723;28;21968;-72
2023/12/02 05:01:24;;;;;;;;;;;-0.40;99.90;;;;;;5004068;28;20028;-72
2023/12/02 05:03:49;;;;;;;;;;;-0.50;99.90;;;;;;5002426;28;19937;-72
2023/12/02 05:06:15;;;;;;;;;;;-0.40;99.90;;;;;;5004824;28;19929;-72
2023/12/02 05:08:41;;;;;;;;;;;-0.40;99.90;;;;;;5004226;28;19995;-72
2023/12/02 05:11:07;;;;;;;;;;;-0.40;99.90;;;;;;5005698;28;20408;-71
2023/12/02 05:13:33;;;;;;;;;;;-0.40;99.90;;;;;;5006662;28;19950;-72
2023/12/02 05:15:58;;;;;;;;;;;-0.40;99.90;;;;;;5010500;28;19932;-72
2023/12/02 05:18:24;;;;;;;;;;;-0.40;99.90;;;;;;5004816;28;20369;-72
2023/12/02 05:20:49;;;;;;;;;;;-0.40;99.90;;;;;;5004549;28;19929;-72
2023/12/02 05:23:15;;;;;;;;;;;-0.40;99.90;;;;;;5006030;28;19977;-72
2023/12/02 05:25:40;;;;;;;;;;;-0.50;99.90;;;;;;5007419;28;19925;-72
2023/12/02 05:28:06;;;;;;;;;;;-0.50;99.90;;;;;;5005218;28;19930;-72
2023/12/02 05:30:33;;;;;;;;;;;-0.40;99.90;;;;;;5004043;28;19936;-72
2023/12/02 05:32:59;;;;;;;;;;;-0.40;99.90;;;;;;5004338;28;19987;-72
2023/12/02 05:35:24;;;;;;;;;;;-0.40;99.90;;;;;;5023170;28;19921;-73
2023/12/02 05:37:50;;;;;;;;;;;-0.40;99.90;;;;;;5004544;28;19992;-72
2023/12/02 05:40:16;;;;;;;;;;;-0.40;99.90;;;;;;5004790;28;20169;-73
2023/12/02 05:42:42;;;;;;;;;;;-0.40;99.90;;;;;;5009542;28;19952;-72
2023/12/02 05:45:07;;;;;;;;;;;-0.30;99.90;;;;;;5003376;28;20368;-72
2023/12/02 05:47:33;;;;;;;;;;;-0.30;99.90;;;;;;5003666;28;19933;-72
2023/12/02 05:49:58;;;;;;;;;;;-0.40;99.90;;;;;;5005716;28;19984;-72
2023/12/02 05:52:24;;;;;;;;;;;-0.30;99.90;;;;;;5001690;28;19925;-72
2023/12/02 05:54:49;;;;;;;;;;;-0.40;99.90;;;;;;4989727;28;20013;-73
2023/12/02 05:57:15;;;;;;;;;;;-0.30;99.90;;;;;;5004015;28;21047;-72
2023/12/02 05:59:40;;;;;;;;;;;-0.40;99.90;;;;;;5003788;28;20008;-72
2023/12/02 06:02:06;;;;;;;;;;;-0.40;99.90;;;;;;5003276;28;19972;-72
2023/12/02 06:04:31;;;;;;;;;;;-0.40;99.90;;;;;;5001222;28;20188;-73
2023/12/02 06:06:57;;;;;;;;;;;-0.40;99.90;;;;;;5003560;28;19925;-72
2023/12/02 06:09:23;;;;;;;;;;;-0.30;99.90;;;;;;5007438;28;19962;-72
2023/12/02 06:11:48;;;;;;;;;;;-0.40;99.90;;;;;;5005278;28;19934;-72
2023/12/02 06:14:14;;;;;;;;;;;-0.30;99.90;;;;;;4999072;28;19926;-72
2023/12/02 06:16:39;;;;;;;;;;;-0.30;99.90;;;;;;5002904;28;19934;-72
2023/12/02 06:19:05;;;;;;;;;;;-0.30;99.90;;;;;;5003964;28;20016;-72
2023/12/02 06:21:30;;;;;;;;;;;-0.30;99.90;;;;;;5003085;28;19930;-72
2023/12/02 06:23:56;;;;;;;;;;;-0.20;99.90;;;;;;5004972;28;19945;-72
2023/12/02 06:26:22;;;;;;;;;;;-0.20;99.90;;;;;;5006361;28;19933;-72
2023/12/02 06:28:49;;;;;;;;;;;-0.20;99.90;;;;;;4985539;28;19925;-72
2023/12/02 06:31:15;;;;;;;;;;;-0.20;99.90;;;;;;5001934;28;20012;-72
2023/12/02 06:33:41;;;;;;;;;;;-0.10;99.90;;;;;;5002579;28;19932;-72
2023/12/02 06:36:08;;;;;;;;;;;-0.20;99.90;;;;;;4996257;28;19933;-72
2023/12/02 06:38:35;;;;;;;;;;;-0.10;99.90;;;;;;4999064;28;19933;-72
2023/12/02 06:41:01;;;;;;;;;;;-0.10;99.90;;;;;;4997960;28;20443;-72
2023/12/02 06:43:27;;;;;;;;;;;-0.20;99.90;;;;;;5014181;28;19925;-73
2023/12/02 06:45:52;;;;;;;;;;;-0.20;99.90;;;;;;5000459;28;20748;-72
2023/12/02 06:48:18;;;;;;;;;;;-0.20;99.90;;;;;;5018072;28;19925;-72
2023/12/02 06:50:43;;;;;;;;;;;-0.10;99.90;;;;;;5006591;28;19929;-72
2023/12/02 06:53:12;;;;;;;;;;;-0.10;99.90;;;;;;5002205;28;20023;-72
2023/12/02 06:55:37;;;;;;;;;;;-0.20;99.90;;;;;;5001062;28;20421;-73
2023/12/02 06:58:03;;;;;;;;;;;-0.10;99.90;;;;;;5006146;28;19934;-73
2023/12/02 07:00:28;;;;;;;;;;;-0.10;99.90;;;;;;5005490;28;19929;-73
2023/12/02 07:02:54;;;;;;;;;;;-0.10;99.90;;;;;;5004867;28;19926;-73
2023/12/02 07:05:20;;;;;;;;;;;-0.10;99.90;;;;;;5001794;28;19939;-71
2023/12/02 07:07:45;;;;;;;;;;;-0.10;99.90;;;;;;5002905;28;19961;-73
2023/12/02 07:10:11;;;;;;;;;;;-0.10;99.90;;;;;;5002993;28;19931;-73
2023/12/02 07:12:36;;;;;;;;;;;-0.10;99.90;;;;;;5003979;28;19929;-72
2023/12/02 07:15:06;;;;;;;;;;;-0.10;99.90;;;;;;5009430;28;19983;-73
2023/12/02 07:17:32;;;;;;;;;;;0.00;99.90;;;;;;5003840;28;20637;-73
2023/12/02 07:19:57;;;;;;;;;;;0.00;99.90;;;;;;5005313;28;19925;-73
2023/12/02 07:22:23;;;;;;;;;;;0.00;99.90;;;;;;5008114;28;19926;-73
2023/12/02 07:24:48;;;;;;;;;;;0.00;99.90;;;;;;4992672;28;19926;-72
2023/12/02 07:27:14;;;;;;;;;;;0.00;99.90;;;;;;5013386;28;19933;-72
2023/12/02 07:29:39;;;;;;;;;;;0.00;99.90;;;;;;5008285;28;20179;-73
2023/12/02 07:32:05;;;;;;;;;;;0.10;99.90;;;;;;5003234;28;19987;-72
2023/12/02 07:34:31;;;;;;;;;;;0.10;99.90;;;;;;4991497;28;19955;-74
2023/12/02 07:36:56;;;;;;;;;;;0.10;99.90;;;;;;4988303;28;19977;-72
2023/12/02 07:39:22;;;;;;;;;;;0.10;99.90;;;;;;5006775;28;20384;-73
2023/12/02 07:41:49;;;;;;;;;;;0.10;99.90;;;;;;5001348;28;20456;-74
2023/12/02 07:44:15;;;;;;;;;;;0.00;99.90;;;;;;5007496;28;19967;-73
2023/12/02 07:46:40;;;;;;;;;;;0.20;99.90;;;;;;5003996;28;19964;-73
2023/12/02 07:49:06;;;;;;;;;;;0.10;99.90;;;;;;5011196;28;19934;-73
2023/12/02 07:51:32;;;;;;;;;;;0.10;99.90;;;;;;5004122;28;19934;-72
2023/12/02 07:53:57;;;;;;;;;;;0.10;99.90;;;;;;5009389;28;19932;-74
2023/12/02 07:56:23;;;;;;;;;;;0.20;99.90;;;;;;5012727;28;19926;-74
2023/12/02 07:58:48;;;;;;;;;;;0.20;99.90;;;;;;5004382;28;19925;-74
2023/12/02 08:01:14;;;;;;;;;;;0.20;99.90;;;;;;5017848;28;19930;-73
2023/12/02 08:03:39;;;;;;;;;;;0.30;99.90;;;;;;5004153;28;19992;-74
2023/12/02 08:06:05;;;;;;;;;;;0.20;99.90;;;;;;5002582;28;19996;-73
2023/12/02 08:08:30;;;;;;;;;;;0.30;99.90;;;;;;5012437;28;19926;-73
2023/12/02 08:10:56;;;;;;;;;;;0.30;99.90;;;;;;5004318;28;19933;-73
2023/12/02 08:13:22;;;;;;;;;;;0.40;99.90;;;;;;5006381;28;19941;-73
2023/12/02 08:15:48;;;;;;;;;;;0.40;99.90;;;;;;5007971;28;19937;-74
2023/12/02 08:18:15;;;;;;;;;;;0.40;99.90;;;;;;4993699;28;20249;-74
2023/12/02 08:20:41;;;;;;;;;;;0.40;99.90;;;;;;5004960;28;19972;-74
2023/12/02 08:23:06;;;;;;;;;;;0.50;99.90;;;;;;5008686;28;19972;-73
2023/12/02 08:25:32;;;;;;;;;;;0.60;99.90;;;;;;5007006;28;19992;-73
2023/12/02 08:27:57;;;;;;;;;;;0.60;99.90;;;;;;5003618;28;19925;-73
2023/12/02 08:30:23;;;;;;;;;;;0.60;99.90;;;;;;5007497;28;19941;-72
2023/12/02 08:32:49;;;;;;;;;;;0.60;99.90;;;;;;5008800;28;20003;-77
2023/12/02 08:35:14;;;;;;;;;;;0.70;99.90;;;;;;5005939;28;20817;-74
2023/12/02 08:37:40;;;;;;;;;;;0.70;99.90;;;;;;5005035;28;19937;-72
2023/12/02 08:40:06;;;;;;;;;;;0.80;99.90;;;;;;5008766;28;20423;-74
2023/12/02 08:42:32;;;;;;;;;;;0.70;99.90;;;;;;4987032;28;19960;-73
2023/12/02 08:44:58;;;;;;;;;;;0.80;99.90;;;;;;5007222;28;19929;-73
2023/12/02 08:47:23;;;;;;;;;;;0.80;99.90;;;;;;5020934;28;19971;-72
2023/12/02 08:49:49;;;;;;;;;;;0.80;99.90;;;;;;5022131;28;19932;-73
2023/12/02 08:52:14;;;;;;;;;;;0.80;99.90;;;;;;5009256;28;19996;-73
2023/12/02 08:54:40;;;;;;;;;;;0.90;99.90;;;;;;5006865;28;20439;-73
2023/12/02 08:57:05;;;;;;;;;;;0.90;99.90;;;;;;5006221;28;19925;-73
2023/12/02 08:59:31;;;;;;;;;;;0.90;99.90;;;;;;4987654;28;20680;-73
2023/12/02 09:01:56;;;;;;;;;;;1.00;99.90;;;;;;4989835;28;20413;-72
2023/12/02 09:04:25;;;;;;;;;;;1.00;99.90;;;;;;5004267;28;19929;-73
2023/12/02 09:06:50;;;;;;;;;;;1.10;99.90;;;;;;4991169;28;19929;-72
2023/12/02 09:09:16;;;;;;;;;;;1.10;99.90;;;;;;5009144;28;19925;-74
2023/12/02 09:11:41;;;;;;;;;;;1.10;99.90;;;;;;5005316;28;19938;-74
2023/12/02 09:14:07;;;;;;;;;;;1.10;99.90;;;;;;5003882;28;19929;-74
2023/12/02 09:16:32;;;;;;;;;;;1.20;99.90;;;;;;5006820;28;20329;-74
2023/12/02 09:18:58;;;;;;;;;;;1.20;99.90;;;;;;5017049;28;21497;-74
2023/12/02 09:21:29;;;;;;;;;;;1.30;99.90;;;;;;5009086;28;19973;-74
2023/12/02 09:23:57;;;;;;;;;;;1.30;99.90;;;;;;5002821;28;19932;-73
2023/12/02 09:26:34;;;;;;;;;;;1.40;99.90;;;;;;4986794;28;20883;-74
2023/12/02 09:28:59;;;;;;;;;;;1.40;99.90;;;;;;5005125;28;19991;-74
2023/12/02 09:31:26;;;;;;;;;;;1.50;99.90;;;;;;5005825;28;19925;-74
2023/12/02 09:33:56;;;;;;;;;;;1.60;99.90;;;;;;5003738;28;19961;-74
2023/12/02 09:36:32;;;;;;;;;;;1.60;99.90;;;;;;5019526;28;20360;-74
2023/12/02 09:39:21;;;;;;;;;;;1.70;99.90;;;;;;5003690;28;19926;-74
2023/12/02 09:41:50;;;;;;;;;;;1.70;99.90;;;;;;4979110;28;20381;-74
2023/12/02 09:44:16;;;;;;;;;;;1.80;99.90;;;;;;5014824;28;20199;-74
2023/12/02 09:46:53;;;;;;;;;;;1.80;99.90;;;;;;5019888;28;20775;-75
2023/12/02 09:49:34;;;;;;;;;;;1.80;99.90;;;;;;5002356;28;19926;-75
2023/12/02 09:52:26;;;;;;;;;;;1.90;99.90;;;;;;5031998;28;19925;-72
2023/12/02 09:54:57;;;;;;;;;;;1.90;99.90;;;;;;4975483;28;19934;-72
2023/12/02 09:57:29;;;;;;;;;;;1.90;99.90;;;;;;4989966;28;19936;-73
2023/12/02 10:00:00;;;;;;;;;;;2.00;99.90;;;;;;5005690;28;19926;-73
2023/12/02 10:02:26;;;;;;;;;;;2.00;99.90;;;;;;5004416;28;19940;-73
2023/12/02 10:05:11;;;;;;;;;;;2.00;99.90;;;;;;4999013;28;19933;-73
2023/12/02 10:07:49;;;;;;;;;;;2.00;99.90;;;;;;5004247;28;20217;-73
2023/12/02 10:10:17;;;;;;;;;;;2.00;99.90;;;;;;5003888;28;19933;-73
2023/12/02 10:12:46;;;;;;;;;;;2.00;99.90;;;;;;5004324;28;19925;-73
2023/12/02 10:15:12;;;;;;;;;;;2.00;99.90;;;;;;5023145;28;20266;-73
2023/12/02 10:17:42;;;;;;;;;;;2.00;99.90;;;;;;4987341;28;19929;-73
2023/12/02 10:20:11;;;;;;;;;;;2.10;99.90;;;;;;5000731;28;20660;-74
2023/12/02 10:22:42;;;;;;;;;;;2.10;99.90;;;;;;5001762;28;20158;-73
2023/12/02 10:25:13;;;;;;;;;;;2.10;99.90;;;;;;5002144;28;20011;-74
2023/12/02 10:27:39;;;;;;;;;;;2.20;99.90;;;;;;5009751;28;19926;-73
2023/12/02 10:30:17;;;;;;;;;;;2.20;99.90;;;;;;4987489;28;19999;-74
2023/12/02 10:32:48;;;;;;;;;;;2.30;99.90;;;;;;5005245;28;20415;-75
2023/12/02 10:35:21;;;;;;;;;;;2.30;99.90;;;;;;5007528;28;19925;-75
2023/12/02 10:37:52;;;;;;;;;;;2.30;99.90;;;;;;5003812;28;19925;-74
2023/12/02 10:40:19;;;;;;;;;;;2.40;99.90;;;;;;5009397;28;19929;-76
2023/12/02 10:42:51;;;;;;;;;;;2.40;99.90;;;;;;5007022;28;19925;-73
2023/12/02 10:45:19;;;;;;;;;;;2.40;99.90;;;;;;5007205;28;19926;-73
2023/12/02 10:47:46;;;;;;;;;;;2.40;99.90;;;;;;5007746;28;19933;-74
2023/12/02 10:50:12;;;;;;;;;;;2.40;99.90;;;;;;5008346;28;19933;-73
2023/12/02 10:52:39;;;;;;;;;;;2.40;99.90;;;;;;5005157;28;20065;-72
2023/12/02 10:55:05;;;;;;;;;;;2.40;99.90;;;;;;5005545;28;19987;-74
2023/12/02 10:57:31;;;;;;;;;;;2.30;99.90;;;;;;5022269;28;19936;-73
2023/12/02 10:59:57;;;;;;;;;;;2.40;99.90;;;;;;5002570;28;19926;-73
2023/12/02 11:02:29;;;;;;;;;;;2.40;99.90;;;;;;5009543;28;19957;-74
2023/12/02 11:05:21;;;;;;;;;;;2.40;99.90;;;;;;4986099;28;19941;-74
2023/12/02 11:07:51;;;;;;;;;;;2.40;99.90;;;;;;4999071;28;20020;-75
2023/12/02 11:10:21;;;;;;;;;;;2.40;99.90;;;;;;5012245;28;19925;-74
2023/12/02 11:12:50;;;;;;;;;;;2.40;99.90;;;;;;5008701;28;19934;-75
2023/12/02 11:15:20;;;;;;;;;;;2.50;99.90;;;;;;5009709;28;19976;-75
2023/12/02 11:18:04;;;;;;;;;;;2.50;99.90;;;;;;5023881;28;19925;-75
2023/12/02 11:20:43;;;;;;;;;;;2.50;99.90;;;;;;5007117;28;19940;-74
2023/12/02 11:23:08;;;;;;;;;;;2.50;99.90;;;;;;5005831;28;19926;-72
2023/12/02 11:25:43;;;;;;;;;;;2.50;99.90;;;;;;5008211;28;19980;-74
2023/12/02 11:28:18;;;;;;;;;;;2.50;99.90;;;;;;5007792;28;19984;-74
2023/12/02 11:30:44;;;;;;;;;;;2.50;99.90;;;;;;5008770;28;20479;-74
2023/12/02 11:33:12;;;;;;;;;;;2.50;99.90;;;;;;5008031;28;19936;-75
2023/12/02 11:35:47;;;;;;;;;;;2.50;99.90;;;;;;5011009;28;19933;-74
2023/12/02 11:38:19;;;;;;;;;;;2.50;99.90;;;;;;5011539;28;19940;-74
2023/12/02 11:41:08;;;;;;;;;;;2.50;99.90;;;;;;5010185;28;19929;-74
2023/12/02 11:43:46;;;;;;;;;;;2.50;99.90;;;;;;5006802;28;19925;-73
2023/12/02 11:46:14;;;;;;;;;;;2.60;99.90;;;;;;5011608;28;19945;-72
2023/12/02 11:48:59;;;;;;;;;;;2.50;99.90;;;;;;5007295;28;20020;-74
2023/12/02 11:51:24;;;;;;;;;;;2.60;99.90;;;;;;5005517;28;19936;-73
2023/12/02 11:53:56;;;;;;;;;;;2.60;99.90;;;;;;5007178;28;19944;-74
2023/12/02 11:56:22;;;;;;;;;;;2.60;99.90;;;;;;5009417;28;19961;-73
2023/12/02 11:58:47;;;;;;;;;;;2.70;99.90;;;;;;5008304;28;20369;-74
2023/12/02 12:01:19;;;;;;;;;;;2.70;99.90;;;;;;5008834;28;20012;-79
2023/12/02 12:03:51;;;;;;;;;;;2.70;99.90;;;;;;5021225;28;20020;-76
2023/12/02 12:06:25;;;;;;;;;;;2.70;99.90;;;;;;4999705;28;20393;-76
2023/12/02 12:09:21;;;;;;;;;;;2.80;99.90;;;;;;5004990;28;20269;-75
2023/12/02 12:11:49;;;;;;;;;;;2.80;99.90;;;;;;4965815;28;19926;-76
2023/12/02 12:14:14;;;;;;;;;;;2.70;99.90;;;;;;5002678;28;19925;-76
2023/12/02 12:16:40;;;;;;;;;;;2.70;99.90;;;;;;4999934;28;20434;-75
2023/12/02 12:19:06;;;;;;;;;;;2.80;99.90;;;;;;5002088;28;19933;-76
2023/12/02 12:21:32;;;;;;;;;;;2.80;99.90;;;;;;5002838;28;19930;-72
2023/12/02 12:23:57;;;;;;;;;;;2.70;99.90;;;;;;5003001;28;20352;-73
2023/12/02 12:26:23;;;;;;;;;;;2.70;99.90;;;;;;4988568;28;19972;-74
2023/12/02 12:28:49;;;;;;;;;;;2.70;99.90;;;;;;5001391;28;19934;-71
2023/12/02 12:31:15;;;;;;;;;;;2.70;99.90;;;;;;5007998;28;20262;-71
2023/12/02 12:33:43;;;;;;;;;;;2.70;99.90;;;;;;5007768;28;19949;-70
2023/12/02 12:36:09;;;;;;;;;;;2.70;99.90;;;;;;5025710;28;20273;-70
2023/12/02 12:38:36;;;;;;;;;;;2.70;99.90;;;;;;5005873;28;19925;-71
2023/12/02 12:41:02;;;;;;;;;;;2.70;99.90;;;;;;5003435;28;19937;-70
2023/12/02 12:43:28;;;;;;;;;;;2.70;99.90;;;;;;5007536;28;20326;-71
2023/12/02 12:45:54;;;;;;;;;;;2.70;99.90;;;;;;5005606;28;19941;-71
2023/12/02 12:48:24;;;;;;;;;;;2.80;99.90;;;;;;5005497;28;19933;-70
2023/12/02 12:50:50;;;;;;;;;;;2.80;99.90;;;;;;5006612;28;20292;-70
2023/12/02 12:53:18;;;;;;;;;;;2.80;99.90;;;;;;4990912;28;19925;-71
2023/12/02 12:55:44;;;;;;;;;;;2.80;99.90;;;;;;5005585;28;19925;-69
2023/12/02 12:58:17;;;;;;;;;;;2.80;99.90;;;;;;5009248;28;20031;-70
2023/12/02 13:00:47;;;;;;;;;;;2.90;99.90;;;;;;5019853;28;20865;-70
2023/12/02 13:03:20;;;;;;;;;;;2.80;99.90;;;;;;5008074;28;19934;-70
2023/12/02 13:05:50;;;;;;;;;;;2.80;99.90;;;;;;5019979;28;20227;-70
2023/12/02 13:08:24;;;;;;;;;;;2.90;99.90;;;;;;5002113;28;20580;-71
2023/12/02 13:10:52;;;;;;;;;;;2.90;99.90;;;;;;5002274;28;19929;-70
2023/12/02 13:13:18;;;;;;;;;;;2.90;99.90;;;;;;5008451;28;19984;-71
2023/12/02 13:15:45;;;;;;;;;;;2.90;99.90;;;;;;5009147;28;19956;-71
2023/12/02 13:18:11;;;;;;;;;;;2.90;99.90;;;;;;5007762;28;20019;-71
2023/12/02 13:20:40;;;;;;;;;;;3.00;99.90;;;;;;5007482;28;19936;-72
2023/12/02 13:23:07;;;;;;;;;;;3.00;99.90;;;;;;5008220;28;19941;-72
2023/12/02 13:25:35;;;;;;;;;;;3.00;99.90;;;;;;5008711;28;19937;-72
2023/12/02 13:28:05;;;;;;;;;;;2.90;99.90;;;;;;5005018;28;19936;-72
2023/12/02 13:30:31;;;;;;;;;;;2.90;99.90;;;;;;5008416;28;19926;-72
2023/12/02 13:33:01;;;;;;;;;;;2.90;99.90;;;;;;5006790;28;19940;-73
2023/12/02 13:35:32;;;;;;;;;;;2.90;99.90;;;;;;5007447;28;19926;-72
2023/12/02 13:38:27;;;;;;;;;;;2.80;99.90;;;;;;5002852;28;19929;-70
2023/12/02 13:41:11;;;;;;;;;;;2.80;99.90;;;;;;4934974;28;20012;-71
2023/12/02 13:43:57;;;;;;;;;;;2.70;99.90;;;;;;5003614;28;19925;-71
2023/12/02 13:46:27;;;;;;;;;;;2.80;99.90;;;;;;5007559;28;20442;-71
2023/12/02 13:49:11;;;;;;;;;;;2.70;99.90;;;;;;5005232;28;20019;-71
2023/12/02 13:51:40;;;;;;;;;;;2.70;99.90;;;;;;5007111;28;19925;-71
2023/12/02 13:54:09;;;;;;;;;;;2.70;99.90;;;;;;5009878;28;19976;-72
2023/12/02 13:56:56;;;;;;;;;;;2.70;99.90;;;;;;5003555;28;20055;-71
2023/12/02 13:59:31;;;;;;;;;;;2.60;99.90;;;;;;4995863;28;19930;-71
2023/12/02 14:02:05;;;;;;;;;;;2.60;99.90;;;;;;5007333;28;20381;-71
2023/12/02 14:04:31;;;;;;;;;;;2.50;99.90;;;;;;5002539;28;19933;-72
2023/12/02 14:07:00;;;;;;;;;;;2.50;99.90;;;;;;5002946;28;19976;-71
2023/12/02 14:09:25;;;;;;;;;;;2.60;99.90;;;;;;5000188;28;19996;-72
2023/12/02 14:12:08;;;;;;;;;;;2.50;99.90;;;;;;4986816;28;19937;-72
2023/12/02 14:14:44;;;;;;;;;;;2.60;99.90;;;;;;5001380;28;19957;-72
2023/12/02 14:17:27;;;;;;;;;;;2.60;99.90;;;;;;5005897;28;19956;-72
2023/12/02 14:20:02;;;;;;;;;;;2.60;99.90;;;;;;5004187;28;19929;-72
2023/12/02 14:22:46;;;;;;;;;;;2.60;99.90;;;;;;5005102;28;19925;-71
2023/12/02 14:25:11;;;;;;;;;;;2.60;99.90;;;;;;5003476;28;20396;-72